createdAt,value
2023-01-11T00:01:09.143Z,2.02
2023-01-11T00:03:36.803Z,1.90
2023-01-11T00:06:04.880Z,1.70
2023-01-11T00:08:32.253Z,1.66
2023-01-11T00:11:02.167Z,1.79
2023-01-11T00:13:31.484Z,1.88
2023-01-11T00:16:20.167Z,1.83
2023-01-11T00:18:47.413Z,1.80
2023-01-11T00:21:14.933Z,1.71
2023-01-11T00:23:42.105Z,1.77
2023-01-11T00:26:13.364Z,1.88
2023-01-11T00:28:40.821Z,1.86
2023-01-11T00:31:09.218Z,1.71
2023-01-11T00:33:46.551Z,1.55
2023-01-11T00:36:15.897Z,1.42
2023-01-11T00:38:55.248Z,1.29
2023-01-11T00:41:46.275Z,1.27
2023-01-11T00:44:39.782Z,1.14
2023-01-11T00:47:34.286Z,1.07
2023-01-11T00:50:02.548Z,1.07
2023-01-11T00:52:29.898Z,1.06
2023-01-11T00:55:01.269Z,1.02
2023-01-11T00:57:36.649Z,0.94
2023-01-11T01:00:06.111Z,0.87
2023-01-11T01:02:34.657Z,0.81
2023-01-11T01:05:03.169Z,0.78
2023-01-11T01:07:38.705Z,0.83
2023-01-11T01:10:07.705Z,0.86
2023-01-11T01:12:54.253Z,0.92
2023-01-11T01:15:25.009Z,0.94
2023-01-11T01:17:56.495Z,1.03
2023-01-11T01:20:25.548Z,1.04
2023-01-11T01:22:55.717Z,1.14
2023-01-11T01:25:23.173Z,1.20
2023-01-11T01:27:54.040Z,1.24
2023-01-11T01:30:21.529Z,1.24
2023-01-11T01:32:48.890Z,1.18
2023-01-11T01:35:16.210Z,1.18
2023-01-11T01:37:44.852Z,1.06
2023-01-11T01:40:13.083Z,0.95
2023-01-11T01:42:40.200Z,0.93
2023-01-11T01:45:28.863Z,0.85
2023-01-11T01:48:02.851Z,0.84
2023-01-11T01:50:38.243Z,0.84
2023-01-11T01:53:13.532Z,0.99
2023-01-11T01:55:49.274Z,0.98
2023-01-11T01:58:19.489Z,0.99
2023-01-11T02:00:46.852Z,1.01
2023-01-11T02:03:25.637Z,1.05
2023-01-11T02:05:54.088Z,1.05
2023-01-11T02:08:38.220Z,1.06
2023-01-11T02:11:27.710Z,1.08
2023-01-11T02:13:58.604Z,0.98
2023-01-11T02:16:27.522Z,0.97
2023-01-11T02:18:58.842Z,0.94
2023-01-11T02:22:14.848Z,0.97
2023-01-11T02:25:34.072Z,0.89
2023-01-11T02:28:32.845Z,0.99
2023-01-11T02:31:50.161Z,0.76
2023-01-11T02:34:32.541Z,0.55
2023-01-11T02:37:38.228Z,0.36
2023-01-11T02:40:27.958Z,0.29
2023-01-11T02:43:32.627Z,0.29
2023-01-11T02:46:12.959Z,0.33
2023-01-11T02:49:05.605Z,0.33
2023-01-11T02:52:00.616Z,0.38
2023-01-11T02:54:31.738Z,0.40
2023-01-11T02:57:01.923Z,0.38
2023-01-11T02:59:35.114Z,0.51
2023-01-11T03:02:03.855Z,0.66
2023-01-11T03:04:39.811Z,0.76
2023-01-11T03:07:48.882Z,0.83
2023-01-11T03:11:06.310Z,0.80
2023-01-11T03:14:08.192Z,0.74
2023-01-11T03:17:06.969Z,0.69
2023-01-11T03:19:51.868Z,0.65
2023-01-11T03:23:37.078Z,0.57
2023-01-11T03:27:03.434Z,0.53
2023-01-11T03:29:33.140Z,0.54
2023-01-11T03:32:33.580Z,0.60
2023-01-11T03:35:35.107Z,0.67
2023-01-11T03:38:16.664Z,0.76
2023-01-11T03:40:53.321Z,0.81
2023-01-11T03:43:24.082Z,0.87
2023-01-11T03:46:14.967Z,0.88
2023-01-11T03:48:55.692Z,0.89
2023-01-11T03:51:32.010Z,0.89
2023-01-11T03:54:06.264Z,0.86
2023-01-11T03:56:51.224Z,0.77
2023-01-11T03:59:19.023Z,0.77
2023-01-11T04:01:46.443Z,0.73
2023-01-11T04:04:13.769Z,0.70
2023-01-11T04:06:41.031Z,0.72
2023-01-11T04:09:08.173Z,0.67
2023-01-11T04:11:35.533Z,0.66
2023-01-11T04:14:02.742Z,0.63
2023-01-11T04:16:29.995Z,0.64
2023-01-11T04:18:57.187Z,0.65
2023-01-11T04:21:24.510Z,0.71
2023-01-11T04:23:52.510Z,0.67
2023-01-11T04:26:19.654Z,0.66
2023-01-11T04:28:46.962Z,0.62
2023-01-11T04:31:14.185Z,0.61
2023-01-11T04:33:41.363Z,0.60
2023-01-11T04:36:11.215Z,0.62
2023-01-11T04:38:38.575Z,0.61
2023-01-11T04:41:24.268Z,0.63
2023-01-11T04:43:56.312Z,0.77
2023-01-11T04:46:24.877Z,0.87
2023-01-11T04:48:52.724Z,0.82
2023-01-11T04:51:20.089Z,0.84
2023-01-11T04:53:51.895Z,0.86
2023-01-11T04:56:19.579Z,0.87
2023-01-11T04:58:47.265Z,0.86
2023-01-11T05:01:19.688Z,0.74
2023-01-11T05:03:47.583Z,0.69
2023-01-11T05:06:15.783Z,0.73
2023-01-11T05:08:47.559Z,0.86
2023-01-11T05:11:20.783Z,0.91
2023-01-11T05:13:48.189Z,0.93
2023-01-11T05:16:24.036Z,0.90
2023-01-11T05:19:01.664Z,0.92
2023-01-11T05:21:39.177Z,0.96
2023-01-11T05:24:17.272Z,0.78
2023-01-11T05:26:48.358Z,0.69
2023-01-11T05:29:16.464Z,0.65
2023-01-11T05:31:44.007Z,0.59
2023-01-11T05:34:14.654Z,0.46
2023-01-11T05:36:42.694Z,0.46
2023-01-11T05:39:12.647Z,0.51
2023-01-11T05:41:40.180Z,0.55
2023-01-11T05:44:30.817Z,0.67
2023-01-11T05:46:58.338Z,0.79
2023-01-11T05:49:25.791Z,0.78
2023-01-11T05:51:53.251Z,0.73
2023-01-11T05:54:20.656Z,0.69
2023-01-11T05:56:47.875Z,0.76
2023-01-11T05:59:15.035Z,0.66
2023-01-11T06:01:42.305Z,0.56
2023-01-11T06:04:09.653Z,0.51
2023-01-11T06:06:36.950Z,0.60
2023-01-11T06:09:04.250Z,0.51
2023-01-11T06:11:31.535Z,0.36
2023-01-11T06:13:58.966Z,0.43
2023-01-11T06:16:30.847Z,0.35
2023-01-11T06:18:58.177Z,0.32
2023-01-11T06:21:25.553Z,0.36
2023-01-11T06:23:52.884Z,0.41
2023-01-11T06:26:25.226Z,0.37
2023-01-11T06:28:57.008Z,0.27
2023-01-11T06:31:24.419Z,0.19
2023-01-11T06:33:52.690Z,0.09
2023-01-11T06:36:20.021Z,0.11
2023-01-11T06:38:47.229Z,0.08
2023-01-11T06:41:14.573Z,0.21
2023-01-11T06:43:42.188Z,0.14
2023-01-11T06:46:15.893Z,0.23
2023-01-11T06:48:44.554Z,0.17
2023-01-11T06:51:13.058Z,0.12
2023-01-11T06:53:42.662Z,0.20
2023-01-11T06:56:20.620Z,0.30
2023-01-11T06:58:48.653Z,0.17
2023-01-11T07:01:17.202Z,0.16
2023-01-11T07:03:45.393Z,0.13
2023-01-11T07:06:13.769Z,0.09
2023-01-11T07:08:42.414Z,0.16
2023-01-11T07:11:09.667Z,0.15
2023-01-11T07:13:36.803Z,0.26
2023-01-11T07:16:04.548Z,0.35
2023-01-11T07:18:33.389Z,0.39
2023-01-11T07:21:00.704Z,0.40
2023-01-11T07:23:27.896Z,0.33
2023-01-11T07:25:55.366Z,0.40
2023-01-11T07:28:22.741Z,0.39
2023-01-11T07:30:58.591Z,0.46
2023-01-11T07:33:27.100Z,0.57
2023-01-11T07:35:54.567Z,0.62
2023-01-11T07:38:22.125Z,0.63
2023-01-11T07:40:49.516Z,0.64
2023-01-11T07:43:18.924Z,0.79
2023-01-11T07:45:49.915Z,0.88
2023-01-11T07:48:26.195Z,0.78
2023-01-11T07:50:54.163Z,0.77
2023-01-11T07:53:25.386Z,0.84
2023-01-11T07:55:55.092Z,0.92
2023-01-11T07:58:22.514Z,1.12
2023-01-11T08:00:49.685Z,1.15
2023-01-11T08:03:17.041Z,1.22
2023-01-11T08:05:49.399Z,1.26
2023-01-11T08:08:16.557Z,1.35
2023-01-11T08:10:43.673Z,1.44
2023-01-11T08:13:33.356Z,1.56
2023-01-11T08:16:00.723Z,1.62
2023-01-11T08:18:29.006Z,1.74
2023-01-11T08:20:56.300Z,1.82
2023-01-11T08:23:23.461Z,1.87
2023-01-11T08:25:50.647Z,2.04
2023-01-11T08:28:17.791Z,2.16
2023-01-11T08:30:45.195Z,2.26
2023-01-11T08:33:12.479Z,2.31
2023-01-11T08:35:39.947Z,2.37
2023-01-11T08:38:08.064Z,2.47
2023-01-11T08:40:36.048Z,2.60
2023-01-11T08:43:03.339Z,2.70
2023-01-11T08:45:30.801Z,2.71
2023-01-11T08:48:00.220Z,2.76
2023-01-11T08:50:27.611Z,2.89
2023-01-11T08:52:54.838Z,3.01
2023-01-11T08:55:22.099Z,3.11
2023-01-11T08:57:49.248Z,3.27
2023-01-11T09:00:17.459Z,3.38
2023-01-11T09:02:47.835Z,3.52
2023-01-11T09:05:17.504Z,3.65
2023-01-11T09:07:46.233Z,3.76
2023-01-11T09:10:13.377Z,3.89
2023-01-11T09:12:40.557Z,4.03
2023-01-11T09:15:10.402Z,4.14
2023-01-11T09:17:37.659Z,4.23
2023-01-11T09:20:06.045Z,4.34
2023-01-11T09:22:33.940Z,4.47
2023-01-11T09:25:01.216Z,4.57
2023-01-11T09:27:28.328Z,4.67
2023-01-11T09:29:55.533Z,4.78
2023-01-11T09:32:23.161Z,4.87
2023-01-11T09:34:53.315Z,5.04
2023-01-11T09:37:22.593Z,5.24
2023-01-11T09:39:51.584Z,5.40
2023-01-11T09:42:39.593Z,5.57
2023-01-11T09:45:35.298Z,5.81
2023-01-11T09:48:28.723Z,5.91
2023-01-11T09:50:57.648Z,6.02
2023-01-11T09:53:34.682Z,6.11
2023-01-11T09:56:12.070Z,6.20
2023-01-11T09:59:42.461Z,6.33
2023-01-11T10:03:17.274Z,6.41
2023-01-11T10:06:24.148Z,6.49
2023-01-11T10:18:33.343Z,6.63
2023-01-11T10:22:08.221Z,6.78
2023-01-11T10:24:52.775Z,6.88
2023-01-11T10:27:42.034Z,6.96
2023-01-11T10:30:31.694Z,6.99
2023-01-11T10:33:13.577Z,7.06
2023-01-11T10:36:51.198Z,7.12
2023-01-11T10:39:54.926Z,7.19
2023-01-11T10:42:30.092Z,7.26
2023-01-11T10:45:19.040Z,7.33
2023-01-11T10:48:05.849Z,7.41
2023-01-11T10:51:24.811Z,7.48
2023-01-11T10:54:22.166Z,7.57
2023-01-11T10:57:38.905Z,7.65
2023-01-11T11:00:53.239Z,7.63
2023-01-11T11:03:39.645Z,7.69
2023-01-11T11:06:27.257Z,7.70
2023-01-11T11:09:37.332Z,7.76
2023-01-11T11:12:30.887Z,7.76
2023-01-11T11:15:18.807Z,7.69
2023-01-11T11:17:54.117Z,7.72
2023-01-11T11:20:29.367Z,7.78
2023-01-11T11:22:57.608Z,7.88
2023-01-11T11:25:38.007Z,7.95
2023-01-11T11:28:33.007Z,7.99
2023-01-11T11:31:07.477Z,7.95
2023-01-11T11:33:40.900Z,7.94
2023-01-11T11:36:14.118Z,7.93
2023-01-11T11:39:05.379Z,7.90
2023-01-11T11:41:52.537Z,7.82
2023-01-11T11:44:27.380Z,7.89
2023-01-11T11:47:06.054Z,7.95
2023-01-11T11:49:36.699Z,7.98
2023-01-11T11:52:05.619Z,8.01
2023-01-11T11:54:53.583Z,8.03
2023-01-11T11:57:29.886Z,8.04
2023-01-11T12:00:30.970Z,8.04
2023-01-11T12:03:24.137Z,8.04
2023-01-11T12:06:05.216Z,8.09
2023-01-11T12:08:36.020Z,8.18
2023-01-11T12:11:07.625Z,8.22
2023-01-11T12:13:42.344Z,8.24
2023-01-11T12:16:42.636Z,8.21
2023-01-11T12:19:38.237Z,8.23
2023-01-11T12:22:26.497Z,8.28
2023-01-11T12:25:25.385Z,8.21
2023-01-11T12:28:49.784Z,8.20
2023-01-11T12:31:44.268Z,8.12
2023-01-11T12:34:40.615Z,8.00
2023-01-11T12:37:35.209Z,8.06
2023-01-11T12:40:40.269Z,7.77
2023-01-11T12:43:41.543Z,7.72
2023-01-11T12:46:55.509Z,7.66
2023-01-11T12:50:03.601Z,7.67
2023-01-11T12:52:53.814Z,7.44
2023-01-11T12:55:48.593Z,7.78
2023-01-11T12:58:39.685Z,7.89
2023-01-11T13:01:39.312Z,7.81
2023-01-11T13:04:58.795Z,7.67
2023-01-11T13:07:59.439Z,7.60
2023-01-11T13:11:12.798Z,7.68
2023-01-11T13:14:33.612Z,7.92
2023-01-11T13:17:32.803Z,7.87
2023-01-11T13:20:59.861Z,7.54
2023-01-11T13:23:41.913Z,7.64
2023-01-11T13:26:45.961Z,7.88
2023-01-11T13:29:48.704Z,8.03
2023-01-11T13:32:24.994Z,7.98
2023-01-11T13:35:14.137Z,7.97
2023-01-11T13:38:25.519Z,7.98
2023-01-11T13:41:00.063Z,8.02
2023-01-11T13:43:45.462Z,8.02
2023-01-11T13:47:07.075Z,8.02
2023-01-11T13:50:10.461Z,7.97
2023-01-11T13:53:15.364Z,8.01
2023-01-11T13:56:06.368Z,8.04
2023-01-11T13:59:13.162Z,8.06
2023-01-11T14:02:03.106Z,8.04
2023-01-11T14:04:57.651Z,8.02
2023-01-11T14:08:18.976Z,7.95
2023-01-11T14:11:36.384Z,7.95
2023-01-11T14:14:51.047Z,7.88
2023-01-11T14:18:09.221Z,7.81
2023-01-11T14:21:25.211Z,7.78
2023-01-11T14:23:55.086Z,7.71
2023-01-11T14:27:05.238Z,7.70
2023-01-11T14:30:46.238Z,7.67
2023-01-11T14:33:56.461Z,7.65
2023-01-11T14:36:44.726Z,7.64
2023-01-11T14:39:52.248Z,7.68
2023-01-11T14:43:02.841Z,7.61
2023-01-11T14:46:48.286Z,7.54
2023-01-11T14:49:37.217Z,7.54
2023-01-11T14:52:16.373Z,7.52
2023-01-11T14:54:48.483Z,7.44
2023-01-11T14:57:41.505Z,7.33
2023-01-11T15:00:20.779Z,7.23
2023-01-11T15:02:54.114Z,7.22
2023-01-11T15:05:33.071Z,7.08
2023-01-11T15:08:15.579Z,7.00
2023-01-11T15:11:04.108Z,6.90
2023-01-11T15:13:47.043Z,6.76
2023-01-11T15:16:42.633Z,6.59
2023-01-11T15:19:34.502Z,6.44
2023-01-11T15:22:05.008Z,6.35
2023-01-11T15:24:41.929Z,6.27
2023-01-11T15:27:31.593Z,6.29
2023-01-11T15:29:59.283Z,6.21
2023-01-11T15:32:33.870Z,6.10
2023-01-11T15:35:23.104Z,6.00
2023-01-11T15:38:11.082Z,5.92
2023-01-11T15:40:43.592Z,5.87
2023-01-11T15:44:05.384Z,5.88
2023-01-11T15:46:53.647Z,5.73
2023-01-11T15:49:54.764Z,5.64
2023-01-11T15:53:23.660Z,5.48
2023-01-11T15:56:31.411Z,5.35
2023-01-11T15:59:55.120Z,5.28
2023-01-11T16:02:37.128Z,5.17
2023-01-11T16:05:27.037Z,5.14
2023-01-11T16:08:32.769Z,5.23
2023-01-11T16:11:22.129Z,5.11
2023-01-11T16:14:43.643Z,5.03
2023-01-11T16:17:19.864Z,4.94
2023-01-11T16:19:47.121Z,4.92
2023-01-11T16:22:20.780Z,4.94
2023-01-11T16:24:53.514Z,4.93
2023-01-11T16:27:34.180Z,4.97
2023-01-11T16:30:02.151Z,5.10
2023-01-11T16:32:35.192Z,5.10
2023-01-11T16:35:16.903Z,5.01
2023-01-11T16:37:49.590Z,4.95
2023-01-11T16:40:24.673Z,5.02
2023-01-11T16:42:57.819Z,5.13
2023-01-11T16:45:41.562Z,5.38
2023-01-11T16:48:28.383Z,5.40
2023-01-11T16:51:17.053Z,5.28
2023-01-11T16:53:54.666Z,5.16
2023-01-11T16:56:24.149Z,5.28
2023-01-11T16:59:15.818Z,5.45
2023-01-11T17:02:04.017Z,5.44
2023-01-11T17:04:50.471Z,5.40
2023-01-11T17:07:26.635Z,5.29
2023-01-11T17:10:19.981Z,5.28
2023-01-11T17:13:40.783Z,5.38
2023-01-11T17:16:15.178Z,5.47
2023-01-11T17:18:43.964Z,5.50
2023-01-11T17:21:19.217Z,5.43
2023-01-11T17:23:49.437Z,5.38
2023-01-11T17:26:28.442Z,5.34
2023-01-11T17:28:59.556Z,5.34
2023-01-11T17:31:32.405Z,5.33
2023-01-11T17:34:27.011Z,5.27
2023-01-11T17:36:55.367Z,5.19
2023-01-11T17:39:33.717Z,5.14
2023-01-11T17:42:24.800Z,5.09
2023-01-11T17:45:13.278Z,5.00
2023-01-11T17:47:51.769Z,4.92
2023-01-11T17:51:07.463Z,4.91
2023-01-11T17:53:37.462Z,4.92
2023-01-11T17:56:37.726Z,4.94
2023-01-11T17:59:23.596Z,5.05
2023-01-11T18:02:00.333Z,5.17
2023-01-11T18:04:28.802Z,5.20
2023-01-11T18:07:22.509Z,5.23
2023-01-11T18:10:03.869Z,5.14
2023-01-11T18:12:40.972Z,5.11
2023-01-11T18:15:36.172Z,5.07
2023-01-11T18:18:56.480Z,5.00
2023-01-11T18:21:53.362Z,4.95
2023-01-11T18:24:45.508Z,4.91
2023-01-11T18:27:26.236Z,4.91
2023-01-11T18:30:11.530Z,4.93
2023-01-11T18:32:47.636Z,4.88
2023-01-11T18:35:19.257Z,4.87
2023-01-11T18:37:47.417Z,4.90
2023-01-11T18:40:19.201Z,4.92
2023-01-11T18:42:52.827Z,4.92
2023-01-11T18:45:21.851Z,4.91
2023-01-11T18:48:01.094Z,4.89
2023-01-11T18:50:47.779Z,4.81
2023-01-11T18:53:21.946Z,4.74
2023-01-11T18:55:51.688Z,4.78
2023-01-11T18:58:18.970Z,4.76
2023-01-11T19:00:46.556Z,4.86
2023-01-11T19:05:42.284Z,4.90
2023-01-11T19:08:09.793Z,4.99
2023-01-11T19:10:36.958Z,5.06
2023-01-11T19:13:04.299Z,5.03
2023-01-11T19:15:35.094Z,4.95
2023-01-11T19:18:03.880Z,4.96
2023-01-11T19:22:59.310Z,4.88
2023-01-11T19:25:26.555Z,4.85
2023-01-11T19:27:55.025Z,4.82
2023-01-11T19:30:22.503Z,4.80
2023-01-11T19:32:57.705Z,4.78
2023-01-11T19:35:26.303Z,4.82
2023-01-11T19:37:53.734Z,4.89
2023-01-11T19:40:21.464Z,4.88
2023-01-11T19:42:53.267Z,4.83
2023-01-11T19:45:20.546Z,4.77
2023-01-11T19:47:47.860Z,4.80
2023-01-11T19:50:17.599Z,4.81
2023-01-11T19:52:46.720Z,4.62
2023-01-11T19:55:14.051Z,4.55
2023-01-11T19:57:41.464Z,4.55
2023-01-11T20:00:11.619Z,4.52
2023-01-11T20:02:42.395Z,4.48
2023-01-11T20:05:10.131Z,4.52
2023-01-11T20:07:37.466Z,4.52
2023-01-11T20:10:05.536Z,4.59
2023-01-11T20:12:32.741Z,4.58
2023-01-11T20:15:01.334Z,4.62
2023-01-11T20:17:29.186Z,4.61
2023-01-11T20:19:56.475Z,4.58
2023-01-11T20:22:25.091Z,4.54
2023-01-11T20:24:52.519Z,4.47
2023-01-11T20:27:19.878Z,4.47
2023-01-11T20:29:47.824Z,4.46
2023-01-11T20:32:39.334Z,4.44
2023-01-11T20:35:05.200Z,4.49
2023-01-11T20:37:36.282Z,4.48
2023-01-11T20:40:04.135Z,4.46
2023-01-11T20:42:31.832Z,4.46
2023-01-11T20:44:59.179Z,4.49
2023-01-11T20:47:26.759Z,4.51
2023-01-11T20:50:02.154Z,4.48
2023-01-11T20:52:32.300Z,4.47
2023-01-11T20:55:16.149Z,4.48
2023-01-11T21:24:24.579Z,4.39
2023-01-11T21:26:54.219Z,4.40
2023-01-11T21:29:23.923Z,4.38
2023-01-11T21:31:53.603Z,4.34
2023-01-11T21:34:37.208Z,4.29
2023-01-11T21:37:25.923Z,4.28
2023-01-11T21:40:04.553Z,4.27
2023-01-11T21:42:38.911Z,4.29
2023-01-11T21:45:08.589Z,4.28
2023-01-11T21:47:36.149Z,4.26
2023-01-11T21:50:33.611Z,4.22
2023-01-11T21:53:01.104Z,4.15
2023-01-11T21:55:49.770Z,4.11
2023-01-11T21:58:44.782Z,4.12
2023-01-11T22:01:28.841Z,4.05
2023-01-11T22:04:12.937Z,4.02
2023-01-11T22:06:46.289Z,3.95
2023-01-11T22:09:30.083Z,3.82
2023-01-11T22:12:01.410Z,3.77
2023-01-11T22:14:30.483Z,3.73
2023-01-11T22:16:57.875Z,3.67
2023-01-11T22:19:32.887Z,3.60
2023-01-11T22:22:00.290Z,3.46
2023-01-11T22:24:48.828Z,3.44
2023-01-11T22:27:18.507Z,3.32
2023-01-11T22:29:48.192Z,3.20
2023-01-11T22:32:15.616Z,3.11
2023-01-11T22:34:45.237Z,3.06
2023-01-11T22:37:12.463Z,3.04
2023-01-11T22:39:40.779Z,3.06
2023-01-11T22:42:08.142Z,2.97
2023-01-11T22:44:36.206Z,2.89
2023-01-11T22:47:03.700Z,2.73
2023-01-11T22:49:30.971Z,2.69
2023-01-11T22:51:58.227Z,2.65
2023-01-11T22:54:28.309Z,2.67
2023-01-11T22:56:59.301Z,2.57
2023-01-11T22:59:27.417Z,2.53
2023-01-11T23:01:57.112Z,2.38
2023-01-11T23:04:43.699Z,2.41
2023-01-11T23:07:38.392Z,2.49
2023-01-11T23:10:11.049Z,2.40
2023-01-11T23:13:03.152Z,2.33
2023-01-11T23:15:30.641Z,2.37
2023-01-11T23:17:57.844Z,2.33
2023-01-11T23:20:28.624Z,2.20
2023-01-11T23:22:55.846Z,2.23
2023-01-11T23:25:26.319Z,2.22
2023-01-11T23:27:53.488Z,2.17
2023-01-11T23:30:20.683Z,2.11
2023-01-11T23:32:47.923Z,2.16
2023-01-11T23:35:15.257Z,2.22
2023-01-11T23:37:42.419Z,2.21
2023-01-11T23:40:10.733Z,2.11
2023-01-11T23:42:38.492Z,2.03
2023-01-11T23:45:06.773Z,2.00
2023-01-11T23:47:33.991Z,1.89
2023-01-11T23:50:01.489Z,1.84
2023-01-11T23:52:32.746Z,1.80
2023-01-11T23:54:59.997Z,1.72
2023-01-11T23:57:27.295Z,1.70
2023-01-11T23:59:56.698Z,1.64
